sensor_id;sensor_type;location;lat;lon;timestamp;P1;durP1;ratioP1;P2;durP2;ratioP2
1300;SDS011;67431;48.806;9.160;2023-02-01T00:00:05;4.13;;;3.73;;
1300;SDS011;67431;48.806;9.160;2023-02-01T00:02:32;5.00;;;3.33;;
1300;SDS011;67431;48.806;9.160;2023-02-01T00:04:58;4.90;;;4.27;;
1300;SDS011;67431;48.806;9.160;2023-02-01T00:07:24;4.90;;;3.50;;
1300;SDS011;67431;48.806;9.160;2023-02-01T00:09:50;5.00;;;3.60;;
1300;SDS011;67431;48.806;9.160;2023-02-01T00:12:16;4.37;;;3.30;;
1300;SDS011;67431;48.806;9.160;2023-02-01T00:14:42;2.70;;;2.47;;
1300;SDS011;67431;48.806;9.160;2023-02-01T00:17:08;5.93;;;3.30;;
1300;SDS011;67431;48.806;9.160;2023-02-01T00:19:34;3.60;;;3.30;;
1300;SDS011;67431;48.806;9.160;2023-02-01T00:22:00;3.80;;;2.77;;
1300;SDS011;67431;48.806;9.160;2023-02-01T00:24:26;3.90;;;3.00;;
1300;SDS011;67431;48.806;9.160;2023-02-01T00:26:53;3.20;;;2.90;;
1300;SDS011;67431;48.806;9.160;2023-02-01T00:29:19;2.93;;;2.33;;
1300;SDS011;67431;48.806;9.160;2023-02-01T00:31:49;3.33;;;2.43;;
1300;SDS011;67431;48.806;9.160;2023-02-01T00:34:16;3.07;;;2.87;;
1300;SDS011;67431;48.806;9.160;2023-02-01T00:36:43;2.90;;;2.60;;
1300;SDS011;67431;48.806;9.160;2023-02-01T00:39:09;2.70;;;2.50;;
1300;SDS011;67431;48.806;9.160;2023-02-01T00:41:36;2.70;;;2.10;;
1300;SDS011;67431;48.806;9.160;2023-02-01T00:44:03;3.17;;;2.90;;
1300;SDS011;67431;48.806;9.160;2023-02-01T00:46:29;2.80;;;2.60;;
1300;SDS011;67431;48.806;9.160;2023-02-01T00:48:57;4.03;;;2.97;;
1300;SDS011;67431;48.806;9.160;2023-02-01T00:51:25;3.23;;;2.67;;
1300;SDS011;67431;48.806;9.160;2023-02-01T00:53:54;3.10;;;2.50;;
1300;SDS011;67431;48.806;9.160;2023-02-01T00:56:20;2.10;;;1.90;;
1300;SDS011;67431;48.806;9.160;2023-02-01T00:58:46;3.33;;;2.40;;
1300;SDS011;67431;48.806;9.160;2023-02-01T01:01:13;2.90;;;2.40;;
1300;SDS011;67431;48.806;9.160;2023-02-01T01:03:44;2.03;;;1.80;;
1300;SDS011;67431;48.806;9.160;2023-02-01T01:06:12;1.83;;;1.73;;
1300;SDS011;67431;48.806;9.160;2023-02-01T01:08:40;2.50;;;2.30;;
1300;SDS011;67431;48.806;9.160;2023-02-01T01:11:14;2.23;;;2.13;;
1300;SDS011;67431;48.806;9.160;2023-02-01T01:13:42;2.57;;;2.40;;
1300;SDS011;67431;48.806;9.160;2023-02-01T01:16:09;2.40;;;2.20;;
1300;SDS011;67431;48.806;9.160;2023-02-01T01:18:36;2.40;;;2.20;;
1300;SDS011;67431;48.806;9.160;2023-02-01T01:21:04;2.93;;;2.10;;
1300;SDS011;67431;48.806;9.160;2023-02-01T01:23:31;2.27;;;2.17;;
1300;SDS011;67431;48.806;9.160;2023-02-01T01:25:57;5.70;;;3.00;;
1300;SDS011;67431;48.806;9.160;2023-02-01T01:28:23;2.23;;;2.00;;
1300;SDS011;67431;48.806;9.160;2023-02-01T01:30:49;2.70;;;2.50;;
1300;SDS011;67431;48.806;9.160;2023-02-01T01:33:15;2.07;;;1.87;;
1300;SDS011;67431;48.806;9.160;2023-02-01T01:35:41;2.17;;;1.87;;
1300;SDS011;67431;48.806;9.160;2023-02-01T01:38:08;2.23;;;2.03;;
1300;SDS011;67431;48.806;9.160;2023-02-01T01:40:35;2.93;;;1.97;;
1300;SDS011;67431;48.806;9.160;2023-02-01T01:43:02;1.83;;;1.73;;
1300;SDS011;67431;48.806;9.160;2023-02-01T01:45:39;2.10;;;1.40;;
1300;SDS011;67431;48.806;9.160;2023-02-01T01:48:07;2.07;;;1.70;;
1300;SDS011;67431;48.806;9.160;2023-02-01T01:50:50;1.50;;;1.40;;
1300;SDS011;67431;48.806;9.160;2023-02-01T01:53:26;1.90;;;1.80;;
1300;SDS011;67431;48.806;9.160;2023-02-01T01:55:56;1.60;;;1.50;;
1300;SDS011;67431;48.806;9.160;2023-02-01T01:58:23;1.53;;;1.43;;
1300;SDS011;67431;48.806;9.160;2023-02-01T02:00:52;1.50;;;1.40;;
1300;SDS011;67431;48.806;9.160;2023-02-01T02:05:50;1.80;;;1.70;;
1300;SDS011;67431;48.806;9.160;2023-02-01T02:08:20;1.80;;;1.40;;
1300;SDS011;67431;48.806;9.160;2023-02-01T02:10:50;2.03;;;1.83;;
1300;SDS011;67431;48.806;9.160;2023-02-01T02:13:26;2.03;;;1.83;;
1300;SDS011;67431;48.806;9.160;2023-02-01T02:30:09;1.33;;;1.23;;
1300;SDS011;67431;48.806;9.160;2023-02-01T02:36:16;1.73;;;1.63;;
1300;SDS011;67431;48.806;9.160;2023-02-01T02:38:54;2.23;;;2.03;;
1300;SDS011;67431;48.806;9.160;2023-02-01T02:41:59;1.70;;;1.60;;
1300;SDS011;67431;48.806;9.160;2023-02-01T02:45:04;2.10;;;2.00;;
1300;SDS011;67431;48.806;9.160;2023-02-01T02:48:22;2.03;;;1.93;;
1300;SDS011;67431;48.806;9.160;2023-02-01T02:51:04;2.47;;;2.03;;
1300;SDS011;67431;48.806;9.160;2023-02-01T02:53:58;2.53;;;2.33;;
1300;SDS011;67431;48.806;9.160;2023-02-01T02:56:45;4.13;;;2.40;;
1300;SDS011;67431;48.806;9.160;2023-02-01T02:59:30;2.50;;;2.13;;
1300;SDS011;67431;48.806;9.160;2023-02-01T03:02:18;3.63;;;2.70;;
1300;SDS011;67431;48.806;9.160;2023-02-01T03:05:04;2.67;;;2.47;;
1300;SDS011;67431;48.806;9.160;2023-02-01T03:10:15;2.50;;;2.30;;
1300;SDS011;67431;48.806;9.160;2023-02-01T03:12:46;2.53;;;2.43;;
1300;SDS011;67431;48.806;9.160;2023-02-01T03:15:32;3.07;;;2.80;;
1300;SDS011;67431;48.806;9.160;2023-02-01T03:18:02;3.03;;;2.83;;
1300;SDS011;67431;48.806;9.160;2023-02-01T03:20:36;2.47;;;2.10;;
1300;SDS011;67431;48.806;9.160;2023-02-01T03:23:33;2.27;;;2.07;;
1300;SDS011;67431;48.806;9.160;2023-02-01T03:26:01;3.20;;;2.97;;
1300;SDS011;67431;48.806;9.160;2023-02-01T03:28:29;2.67;;;2.53;;
1300;SDS011;67431;48.806;9.160;2023-02-01T03:30:58;2.50;;;2.30;;
1300;SDS011;67431;48.806;9.160;2023-02-01T03:33:25;2.33;;;2.17;;
1300;SDS011;67431;48.806;9.160;2023-02-01T03:47:25;2.30;;;2.10;;
1300;SDS011;67431;48.806;9.160;2023-02-01T03:49:50;2.67;;;1.90;;
1300;SDS011;67431;48.806;9.160;2023-02-01T03:52:44;2.10;;;2.00;;
1300;SDS011;67431;48.806;9.160;2023-02-01T03:55:20;2.00;;;1.90;;
1300;SDS011;67431;48.806;9.160;2023-02-01T03:57:55;2.10;;;2.00;;
1300;SDS011;67431;48.806;9.160;2023-02-01T04:00:27;2.53;;;1.90;;
1300;SDS011;67431;48.806;9.160;2023-02-01T04:02:55;2.60;;;2.40;;
1300;SDS011;67431;48.806;9.160;2023-02-01T04:05:21;1.90;;;1.70;;
1300;SDS011;67431;48.806;9.160;2023-02-01T04:07:57;2.37;;;2.17;;
1300;SDS011;67431;48.806;9.160;2023-02-01T04:10:23;3.17;;;2.27;;
1300;SDS011;67431;48.806;9.160;2023-02-01T04:12:49;2.50;;;1.93;;
1300;SDS011;67431;48.806;9.160;2023-02-01T04:15:15;1.93;;;1.83;;
1300;SDS011;67431;48.806;9.160;2023-02-01T04:17:41;1.93;;;1.80;;
1300;SDS011;67431;48.806;9.160;2023-02-01T04:20:07;1.80;;;1.70;;
1300;SDS011;67431;48.806;9.160;2023-02-01T04:22:34;2.17;;;1.93;;
1300;SDS011;67431;48.806;9.160;2023-02-01T04:24:59;2.40;;;1.97;;
1300;SDS011;67431;48.806;9.160;2023-02-01T04:27:25;1.97;;;1.87;;
1300;SDS011;67431;48.806;9.160;2023-02-01T04:29:51;2.10;;;1.90;;
1300;SDS011;67431;48.806;9.160;2023-02-01T04:32:18;2.37;;;2.20;;
1300;SDS011;67431;48.806;9.160;2023-02-01T04:34:45;2.93;;;2.20;;
1300;SDS011;67431;48.806;9.160;2023-02-01T04:37:11;2.30;;;2.10;;
1300;SDS011;67431;48.806;9.160;2023-02-01T04:39:37;3.30;;;2.70;;
1300;SDS011;67431;48.806;9.160;2023-02-01T04:42:02;2.40;;;2.20;;
1300;SDS011;67431;48.806;9.160;2023-02-01T04:44:29;4.00;;;2.50;;
1300;SDS011;67431;48.806;9.160;2023-02-01T04:46:54;2.47;;;2.20;;
1300;SDS011;67431;48.806;9.160;2023-02-01T04:49:20;2.07;;;1.90;;
1300;SDS011;67431;48.806;9.160;2023-02-01T04:51:46;2.43;;;2.20;;
1300;SDS011;67431;48.806;9.160;2023-02-01T04:54:13;2.20;;;2.00;;
1300;SDS011;67431;48.806;9.160;2023-02-01T04:56:39;2.27;;;2.07;;
1300;SDS011;67431;48.806;9.160;2023-02-01T04:59:05;2.43;;;1.63;;
1300;SDS011;67431;48.806;9.160;2023-02-01T05:01:31;1.90;;;1.70;;
1300;SDS011;67431;48.806;9.160;2023-02-01T05:03:57;2.43;;;2.20;;
1300;SDS011;67431;48.806;9.160;2023-02-01T05:06:23;1.70;;;1.60;;
1300;SDS011;67431;48.806;9.160;2023-02-01T05:08:49;1.70;;;1.60;;
1300;SDS011;67431;48.806;9.160;2023-02-01T05:11:15;2.03;;;1.67;;
1300;SDS011;67431;48.806;9.160;2023-02-01T05:14:00;1.50;;;1.40;;
1300;SDS011;67431;48.806;9.160;2023-02-01T05:16:26;2.30;;;1.70;;
1300;SDS011;67431;48.806;9.160;2023-02-01T05:18:53;1.97;;;1.83;;
1300;SDS011;67431;48.806;9.160;2023-02-01T05:21:19;2.13;;;1.93;;
1300;SDS011;67431;48.806;9.160;2023-02-01T05:23:45;1.80;;;1.70;;
1300;SDS011;67431;48.806;9.160;2023-02-01T05:26:30;1.90;;;1.80;;
1300;SDS011;67431;48.806;9.160;2023-02-01T05:28:56;1.77;;;1.60;;
1300;SDS011;67431;48.806;9.160;2023-02-01T05:31:23;1.80;;;1.70;;
1300;SDS011;67431;48.806;9.160;2023-02-01T05:33:49;2.80;;;1.80;;
1300;SDS011;67431;48.806;9.160;2023-02-01T05:36:15;2.63;;;2.07;;
1300;SDS011;67431;48.806;9.160;2023-02-01T05:38:41;1.90;;;1.80;;
1300;SDS011;67431;48.806;9.160;2023-02-01T05:41:07;2.07;;;1.87;;
1300;SDS011;67431;48.806;9.160;2023-02-01T05:43:33;3.83;;;3.07;;
1300;SDS011;67431;48.806;9.160;2023-02-01T05:45:59;2.73;;;2.53;;
1300;SDS011;67431;48.806;9.160;2023-02-01T05:48:25;6.93;;;5.30;;
1300;SDS011;67431;48.806;9.160;2023-02-01T05:50:51;3.60;;;2.60;;
1300;SDS011;67431;48.806;9.160;2023-02-01T05:53:16;2.53;;;2.33;;
1300;SDS011;67431;48.806;9.160;2023-02-01T05:55:42;3.37;;;3.07;;
1300;SDS011;67431;48.806;9.160;2023-02-01T05:58:08;2.97;;;2.77;;
1300;SDS011;67431;48.806;9.160;2023-02-01T06:00:34;2.47;;;2.27;;
1300;SDS011;67431;48.806;9.160;2023-02-01T06:03:00;4.40;;;2.77;;
1300;SDS011;67431;48.806;9.160;2023-02-01T06:05:26;2.60;;;2.37;;
1300;SDS011;67431;48.806;9.160;2023-02-01T06:07:52;3.60;;;2.27;;
1300;SDS011;67431;48.806;9.160;2023-02-01T06:10:18;2.97;;;2.73;;
1300;SDS011;67431;48.806;9.160;2023-02-01T06:12:44;2.60;;;2.40;;
1300;SDS011;67431;48.806;9.160;2023-02-01T06:15:13;4.47;;;2.60;;
1300;SDS011;67431;48.806;9.160;2023-02-01T06:17:43;2.87;;;2.37;;
1300;SDS011;67431;48.806;9.160;2023-02-01T06:20:11;2.67;;;2.47;;
1300;SDS011;67431;48.806;9.160;2023-02-01T06:22:38;5.50;;;2.20;;
1300;SDS011;67431;48.806;9.160;2023-02-01T06:25:05;4.00;;;3.23;;
1300;SDS011;67431;48.806;9.160;2023-02-01T06:27:35;3.17;;;2.80;;
1300;SDS011;67431;48.806;9.160;2023-02-01T06:30:03;3.90;;;2.77;;
1300;SDS011;67431;48.806;9.160;2023-02-01T06:32:30;3.90;;;2.63;;
1300;SDS011;67431;48.806;9.160;2023-02-01T06:34:55;3.97;;;3.67;;
1300;SDS011;67431;48.806;9.160;2023-02-01T06:37:22;3.47;;;3.27;;
1300;SDS011;67431;48.806;9.160;2023-02-01T06:39:50;5.17;;;3.50;;
1300;SDS011;67431;48.806;9.160;2023-02-01T06:42:16;3.10;;;2.80;;
1300;SDS011;67431;48.806;9.160;2023-02-01T06:44:42;6.17;;;4.90;;
1300;SDS011;67431;48.806;9.160;2023-02-01T06:47:07;5.23;;;4.10;;
1300;SDS011;67431;48.806;9.160;2023-02-01T06:49:34;3.27;;;2.97;;
1300;SDS011;67431;48.806;9.160;2023-02-01T06:52:00;3.57;;;3.27;;
1300;SDS011;67431;48.806;9.160;2023-02-01T06:54:27;2.27;;;2.17;;
1300;SDS011;67431;48.806;9.160;2023-02-01T06:56:53;2.90;;;2.70;;
1300;SDS011;67431;48.806;9.160;2023-02-01T06:59:19;3.10;;;2.43;;
1300;SDS011;67431;48.806;9.160;2023-02-01T07:01:45;4.03;;;2.50;;
1300;SDS011;67431;48.806;9.160;2023-02-01T07:04:11;3.70;;;3.40;;
1300;SDS011;67431;48.806;9.160;2023-02-01T07:06:38;4.60;;;2.67;;
1300;SDS011;67431;48.806;9.160;2023-02-01T07:09:05;5.33;;;3.67;;
1300;SDS011;67431;48.806;9.160;2023-02-01T07:11:31;6.23;;;3.40;;
1300;SDS011;67431;48.806;9.160;2023-02-01T07:13:57;5.93;;;3.20;;
1300;SDS011;67431;48.806;9.160;2023-02-01T07:16:24;4.90;;;3.60;;
1300;SDS011;67431;48.806;9.160;2023-02-01T07:18:50;5.27;;;2.40;;
1300;SDS011;67431;48.806;9.160;2023-02-01T07:21:18;3.33;;;2.97;;
1300;SDS011;67431;48.806;9.160;2023-02-01T07:23:44;3.23;;;2.80;;
1300;SDS011;67431;48.806;9.160;2023-02-01T07:26:11;3.67;;;2.67;;
1300;SDS011;67431;48.806;9.160;2023-02-01T07:28:39;6.13;;;3.20;;
1300;SDS011;67431;48.806;9.160;2023-02-01T07:31:07;4.37;;;3.10;;
1300;SDS011;67431;48.806;9.160;2023-02-01T07:33:34;5.57;;;3.20;;
1300;SDS011;67431;48.806;9.160;2023-02-01T07:36:02;5.00;;;3.37;;
1300;SDS011;67431;48.806;9.160;2023-02-01T07:38:29;4.37;;;2.93;;
1300;SDS011;67431;48.806;9.160;2023-02-01T07:40:59;2.97;;;2.50;;
1300;SDS011;67431;48.806;9.160;2023-02-01T07:43:26;4.03;;;2.83;;
1300;SDS011;67431;48.806;9.160;2023-02-01T07:45:52;3.90;;;3.07;;
1300;SDS011;67431;48.806;9.160;2023-02-01T07:48:19;3.40;;;2.90;;
1300;SDS011;67431;48.806;9.160;2023-02-01T07:50:45;3.73;;;2.93;;
1300;SDS011;67431;48.806;9.160;2023-02-01T07:53:11;5.20;;;2.97;;
1300;SDS011;67431;48.806;9.160;2023-02-01T07:55:38;3.23;;;2.93;;
1300;SDS011;67431;48.806;9.160;2023-02-01T07:58:05;4.50;;;2.90;;
1300;SDS011;67431;48.806;9.160;2023-02-01T08:00:31;7.43;;;4.00;;
1300;SDS011;67431;48.806;9.160;2023-02-01T08:03:15;6.30;;;3.30;;
1300;SDS011;67431;48.806;9.160;2023-02-01T08:05:41;6.47;;;2.93;;
1300;SDS011;67431;48.806;9.160;2023-02-01T08:08:07;4.73;;;2.70;;
1300;SDS011;67431;48.806;9.160;2023-02-01T08:10:33;6.70;;;2.97;;
1300;SDS011;67431;48.806;9.160;2023-02-01T08:13:00;7.73;;;3.30;;
1300;SDS011;67431;48.806;9.160;2023-02-01T08:15:28;6.80;;;3.10;;
1300;SDS011;67431;48.806;9.160;2023-02-01T08:17:54;5.60;;;2.37;;
1300;SDS011;67431;48.806;9.160;2023-02-01T08:20:21;5.80;;;3.10;;
1300;SDS011;67431;48.806;9.160;2023-02-01T08:22:48;4.30;;;2.80;;
1300;SDS011;67431;48.806;9.160;2023-02-01T08:25:17;5.47;;;2.20;;
1300;SDS011;67431;48.806;9.160;2023-02-01T08:27:43;7.63;;;2.40;;
1300;SDS011;67431;48.806;9.160;2023-02-01T08:30:10;10.10;;;3.33;;
1300;SDS011;67431;48.806;9.160;2023-02-01T08:32:36;6.20;;;3.70;;
1300;SDS011;67431;48.806;9.160;2023-02-01T08:35:03;6.10;;;2.40;;
1300;SDS011;67431;48.806;9.160;2023-02-01T08:37:29;3.57;;;3.20;;
1300;SDS011;67431;48.806;9.160;2023-02-01T08:39:55;7.63;;;3.17;;
1300;SDS011;67431;48.806;9.160;2023-02-01T08:42:21;7.43;;;3.63;;
1300;SDS011;67431;48.806;9.160;2023-02-01T08:45:06;4.07;;;2.60;;
1300;SDS011;67431;48.806;9.160;2023-02-01T08:47:33;7.60;;;2.80;;
1300;SDS011;67431;48.806;9.160;2023-02-01T08:49:59;7.87;;;2.97;;
1300;SDS011;67431;48.806;9.160;2023-02-01T08:52:25;7.93;;;3.00;;
1300;SDS011;67431;48.806;9.160;2023-02-01T08:54:51;6.87;;;2.27;;
1300;SDS011;67431;48.806;9.160;2023-02-01T08:57:17;7.10;;;2.87;;
1300;SDS011;67431;48.806;9.160;2023-02-01T08:59:43;6.23;;;3.20;;
1300;SDS011;67431;48.806;9.160;2023-02-01T09:02:13;11.47;;;3.87;;
1300;SDS011;67431;48.806;9.160;2023-02-01T09:04:40;6.00;;;2.30;;
1300;SDS011;67431;48.806;9.160;2023-02-01T09:07:07;4.00;;;2.80;;
1300;SDS011;67431;48.806;9.160;2023-02-01T09:09:34;9.43;;;3.27;;
1300;SDS011;67431;48.806;9.160;2023-02-01T09:12:03;7.60;;;2.90;;
1300;SDS011;67431;48.806;9.160;2023-02-01T09:14:29;9.17;;;2.93;;
1300;SDS011;67431;48.806;9.160;2023-02-01T09:17:06;6.37;;;2.50;;
1300;SDS011;67431;48.806;9.160;2023-02-01T09:19:32;7.43;;;2.93;;
1300;SDS011;67431;48.806;9.160;2023-02-01T09:21:57;4.03;;;2.60;;
1300;SDS011;67431;48.806;9.160;2023-02-01T09:24:23;7.43;;;3.10;;
1300;SDS011;67431;48.806;9.160;2023-02-01T09:26:49;4.80;;;3.60;;
1300;SDS011;67431;48.806;9.160;2023-02-01T09:29:15;9.03;;;3.13;;
1300;SDS011;67431;48.806;9.160;2023-02-01T09:31:41;7.63;;;2.90;;
1300;SDS011;67431;48.806;9.160;2023-02-01T09:34:07;7.13;;;3.73;;
1300;SDS011;67431;48.806;9.160;2023-02-01T09:36:33;13.70;;;3.70;;
1300;SDS011;67431;48.806;9.160;2023-02-01T09:39:00;8.67;;;3.30;;
1300;SDS011;67431;48.806;9.160;2023-02-01T09:41:51;7.13;;;2.70;;
1300;SDS011;67431;48.806;9.160;2023-02-01T09:44:16;4.57;;;2.33;;
1300;SDS011;67431;48.806;9.160;2023-02-01T09:46:46;6.27;;;3.00;;
1300;SDS011;67431;48.806;9.160;2023-02-01T09:49:15;10.27;;;3.33;;
1300;SDS011;67431;48.806;9.160;2023-02-01T09:51:45;7.97;;;2.50;;
1300;SDS011;67431;48.806;9.160;2023-02-01T09:54:17;10.03;;;2.63;;
1300;SDS011;67431;48.806;9.160;2023-02-01T09:59:25;5.37;;;2.77;;
1300;SDS011;67431;48.806;9.160;2023-02-01T10:01:52;5.70;;;1.97;;
1300;SDS011;67431;48.806;9.160;2023-02-01T10:04:19;6.93;;;2.60;;
1300;SDS011;67431;48.806;9.160;2023-02-01T10:26:33;7.17;;;2.47;;
1300;SDS011;67431;48.806;9.160;2023-02-01T10:28:58;6.73;;;3.43;;
1300;SDS011;67431;48.806;9.160;2023-02-01T10:31:27;8.60;;;3.77;;
1300;SDS011;67431;48.806;9.160;2023-02-01T10:33:58;9.20;;;2.60;;
1300;SDS011;67431;48.806;9.160;2023-02-01T10:38:55;7.30;;;2.43;;
1300;SDS011;67431;48.806;9.160;2023-02-01T10:41:23;5.80;;;2.57;;
1300;SDS011;67431;48.806;9.160;2023-02-01T10:43:57;9.53;;;2.47;;
1300;SDS011;67431;48.806;9.160;2023-02-01T10:46:25;9.00;;;4.03;;
1300;SDS011;67431;48.806;9.160;2023-02-01T10:48:52;6.67;;;2.60;;
1300;SDS011;67431;48.806;9.160;2023-02-01T10:51:28;7.90;;;2.40;;
1300;SDS011;67431;48.806;9.160;2023-02-01T10:54:19;15.07;;;2.80;;
1300;SDS011;67431;48.806;9.160;2023-02-01T10:56:56;18.27;;;3.57;;
1300;SDS011;67431;48.806;9.160;2023-02-01T10:59:27;5.43;;;2.00;;
1300;SDS011;67431;48.806;9.160;2023-02-01T11:01:58;8.10;;;2.70;;
1300;SDS011;67431;48.806;9.160;2023-02-01T11:04:26;9.73;;;3.33;;
1300;SDS011;67431;48.806;9.160;2023-02-01T11:07:17;10.83;;;2.63;;
1300;SDS011;67431;48.806;9.160;2023-02-01T11:09:53;4.57;;;2.50;;
1300;SDS011;67431;48.806;9.160;2023-02-01T11:12:30;6.27;;;2.90;;
1300;SDS011;67431;48.806;9.160;2023-02-01T11:14:58;7.60;;;2.63;;
1300;SDS011;67431;48.806;9.160;2023-02-01T11:17:42;6.40;;;2.60;;
1300;SDS011;67431;48.806;9.160;2023-02-01T11:20:14;7.60;;;2.90;;
1300;SDS011;67431;48.806;9.160;2023-02-01T11:22:46;5.73;;;2.33;;
1300;SDS011;67431;48.806;9.160;2023-02-01T11:25:13;10.90;;;3.00;;
1300;SDS011;67431;48.806;9.160;2023-02-01T11:27:41;12.03;;;3.60;;
1300;SDS011;67431;48.806;9.160;2023-02-01T11:30:13;10.93;;;3.33;;
1300;SDS011;67431;48.806;9.160;2023-02-01T11:32:42;5.37;;;2.30;;
1300;SDS011;67431;48.806;9.160;2023-02-01T11:35:13;14.03;;;3.83;;
1300;SDS011;67431;48.806;9.160;2023-02-01T11:37:44;4.20;;;1.80;;
1300;SDS011;67431;48.806;9.160;2023-02-01T11:45:38;8.93;;;3.63;;
1300;SDS011;67431;48.806;9.160;2023-02-01T11:48:15;8.07;;;2.40;;
1300;SDS011;67431;48.806;9.160;2023-02-01T11:50:55;4.20;;;2.40;;
1300;SDS011;67431;48.806;9.160;2023-02-01T11:53:42;7.83;;;2.70;;
1300;SDS011;67431;48.806;9.160;2023-02-01T11:56:46;9.60;;;2.30;;
1300;SDS011;67431;48.806;9.160;2023-02-01T12:07:31;7.40;;;2.33;;
1300;SDS011;67431;48.806;9.160;2023-02-01T12:10:22;9.90;;;3.13;;
1300;SDS011;67431;48.806;9.160;2023-02-01T12:21:32;8.20;;;2.87;;
1300;SDS011;67431;48.806;9.160;2023-02-01T12:26:56;13.60;;;2.73;;
1300;SDS011;67431;48.806;9.160;2023-02-01T12:29:47;5.80;;;2.33;;
1300;SDS011;67431;48.806;9.160;2023-02-01T12:43:18;4.93;;;2.00;;
1300;SDS011;67431;48.806;9.160;2023-02-01T12:45:58;7.50;;;2.50;;
1300;SDS011;67431;48.806;9.160;2023-02-01T12:48:38;13.80;;;3.00;;
1300;SDS011;67431;48.806;9.160;2023-02-01T12:51:14;9.43;;;3.73;;
1300;SDS011;67431;48.806;9.160;2023-02-01T12:56:14;7.20;;;3.30;;
1300;SDS011;67431;48.806;9.160;2023-02-01T12:58:49;8.77;;;3.00;;
1300;SDS011;67431;48.806;9.160;2023-02-01T13:04:12;6.80;;;2.90;;
1300;SDS011;67431;48.806;9.160;2023-02-01T13:06:50;6.60;;;2.57;;
1300;SDS011;67431;48.806;9.160;2023-02-01T13:09:23;11.10;;;3.13;;
1300;SDS011;67431;48.806;9.160;2023-02-01T13:11:59;11.90;;;3.67;;
1300;SDS011;67431;48.806;9.160;2023-02-01T13:17:12;7.87;;;3.30;;
1300;SDS011;67431;48.806;9.160;2023-02-01T13:22:30;7.30;;;2.90;;
1300;SDS011;67431;48.806;9.160;2023-02-01T13:25:00;9.17;;;2.40;;
1300;SDS011;67431;48.806;9.160;2023-02-01T13:27:35;7.07;;;3.20;;
1300;SDS011;67431;48.806;9.160;2023-02-01T13:30:14;5.43;;;2.33;;
1300;SDS011;67431;48.806;9.160;2023-02-01T13:35:45;7.50;;;1.70;;
1300;SDS011;67431;48.806;9.160;2023-02-01T13:38:44;5.10;;;3.07;;
1300;SDS011;67431;48.806;9.160;2023-02-01T13:41:57;5.43;;;2.47;;
1300;SDS011;67431;48.806;9.160;2023-02-01T13:44:30;9.83;;;2.80;;
1300;SDS011;67431;48.806;9.160;2023-02-01T13:47:02;5.03;;;2.53;;
1300;SDS011;67431;48.806;9.160;2023-02-01T13:49:38;7.43;;;2.80;;
1300;SDS011;67431;48.806;9.160;2023-02-01T13:52:06;3.20;;;1.87;;
1300;SDS011;67431;48.806;9.160;2023-02-01T13:55:13;4.50;;;2.40;;
1300;SDS011;67431;48.806;9.160;2023-02-01T13:57:40;10.20;;;2.57;;
1300;SDS011;67431;48.806;9.160;2023-02-01T14:24:14;7.50;;;2.73;;
1300;SDS011;67431;48.806;9.160;2023-02-01T14:26:49;8.90;;;2.90;;
1300;SDS011;67431;48.806;9.160;2023-02-01T14:34:48;7.33;;;2.87;;
1300;SDS011;67431;48.806;9.160;2023-02-01T14:40:06;7.47;;;2.47;;
1300;SDS011;67431;48.806;9.160;2023-02-01T14:42:46;6.40;;;2.20;;
1300;SDS011;67431;48.806;9.160;2023-02-01T14:53:15;9.40;;;3.10;;
1300;SDS011;67431;48.806;9.160;2023-02-01T15:01:21;4.70;;;2.60;;
1300;SDS011;67431;48.806;9.160;2023-02-01T15:06:31;9.37;;;2.93;;
1300;SDS011;67431;48.806;9.160;2023-02-01T15:09:11;12.40;;;3.40;;
1300;SDS011;67431;48.806;9.160;2023-02-01T15:14:24;5.87;;;2.50;;
1300;SDS011;67431;48.806;9.160;2023-02-01T15:16:50;9.83;;;2.87;;
1300;SDS011;67431;48.806;9.160;2023-02-01T15:19:19;7.07;;;3.37;;
1300;SDS011;67431;48.806;9.160;2023-02-01T15:21:48;11.00;;;2.90;;
1300;SDS011;67431;48.806;9.160;2023-02-01T15:24:29;10.50;;;2.53;;
1300;SDS011;67431;48.806;9.160;2023-02-01T15:27:02;6.93;;;2.90;;
1300;SDS011;67431;48.806;9.160;2023-02-01T15:29:29;6.60;;;3.20;;
1300;SDS011;67431;48.806;9.160;2023-02-01T15:31:57;8.57;;;2.87;;
1300;SDS011;67431;48.806;9.160;2023-02-01T15:34:33;9.93;;;3.43;;
1300;SDS011;67431;48.806;9.160;2023-02-01T15:37:13;7.07;;;2.60;;
1300;SDS011;67431;48.806;9.160;2023-02-01T15:42:35;7.00;;;3.13;;
1300;SDS011;67431;48.806;9.160;2023-02-01T15:45:18;7.63;;;2.87;;
1300;SDS011;67431;48.806;9.160;2023-02-01T15:47:46;5.23;;;2.40;;
1300;SDS011;67431;48.806;9.160;2023-02-01T15:50:15;10.13;;;2.90;;
1300;SDS011;67431;48.806;9.160;2023-02-01T15:52:42;9.70;;;3.20;;
1300;SDS011;67431;48.806;9.160;2023-02-01T15:55:18;8.00;;;2.40;;
1300;SDS011;67431;48.806;9.160;2023-02-01T15:57:48;8.93;;;2.73;;
1300;SDS011;67431;48.806;9.160;2023-02-01T16:00:30;5.37;;;1.93;;
1300;SDS011;67431;48.806;9.160;2023-02-01T16:03:05;4.73;;;2.60;;
1300;SDS011;67431;48.806;9.160;2023-02-01T16:05:53;5.67;;;2.30;;
1300;SDS011;67431;48.806;9.160;2023-02-01T16:08:22;4.50;;;2.60;;
1300;SDS011;67431;48.806;9.160;2023-02-01T16:10:54;9.40;;;2.00;;
1300;SDS011;67431;48.806;9.160;2023-02-01T16:13:26;2.90;;;1.30;;
1300;SDS011;67431;48.806;9.160;2023-02-01T16:15:52;7.97;;;2.40;;
1300;SDS011;67431;48.806;9.160;2023-02-01T16:18:18;4.87;;;2.30;;
1300;SDS011;67431;48.806;9.160;2023-02-01T16:20:47;7.63;;;2.53;;
1300;SDS011;67431;48.806;9.160;2023-02-01T16:23:13;4.23;;;2.70;;
1300;SDS011;67431;48.806;9.160;2023-02-01T16:25:39;6.10;;;2.97;;
1300;SDS011;67431;48.806;9.160;2023-02-01T16:28:05;4.70;;;1.73;;
1300;SDS011;67431;48.806;9.160;2023-02-01T16:30:31;3.30;;;2.00;;
1300;SDS011;67431;48.806;9.160;2023-02-01T16:32:58;6.37;;;2.20;;
1300;SDS011;67431;48.806;9.160;2023-02-01T16:35:34;4.57;;;2.17;;
1300;SDS011;67431;48.806;9.160;2023-02-01T16:38:13;14.73;;;2.87;;
1300;SDS011;67431;48.806;9.160;2023-02-01T16:40:44;9.60;;;3.00;;
1300;SDS011;67431;48.806;9.160;2023-02-01T16:43:15;4.00;;;1.73;;
1300;SDS011;67431;48.806;9.160;2023-02-01T16:45:46;7.97;;;2.40;;
1300;SDS011;67431;48.806;9.160;2023-02-01T16:48:33;6.50;;;2.80;;
1300;SDS011;67431;48.806;9.160;2023-02-01T16:51:02;4.57;;;1.87;;
1300;SDS011;67431;48.806;9.160;2023-02-01T16:53:32;8.20;;;1.90;;
1300;SDS011;67431;48.806;9.160;2023-02-01T16:55:58;6.67;;;2.47;;
1300;SDS011;67431;48.806;9.160;2023-02-01T16:58:25;5.87;;;2.83;;
1300;SDS011;67431;48.806;9.160;2023-02-01T17:00:52;8.90;;;2.30;;
1300;SDS011;67431;48.806;9.160;2023-02-01T17:03:19;2.67;;;2.13;;
1300;SDS011;67431;48.806;9.160;2023-02-01T17:05:51;9.27;;;2.00;;
1300;SDS011;67431;48.806;9.160;2023-02-01T17:08:41;8.93;;;3.00;;
1300;SDS011;67431;48.806;9.160;2023-02-01T17:11:11;5.30;;;2.33;;
1300;SDS011;67431;48.806;9.160;2023-02-01T17:13:38;9.80;;;2.03;;
1300;SDS011;67431;48.806;9.160;2023-02-01T17:16:13;8.17;;;2.93;;
1300;SDS011;67431;48.806;9.160;2023-02-01T17:18:59;7.93;;;2.43;;
1300;SDS011;67431;48.806;9.160;2023-02-01T17:21:29;5.30;;;2.03;;
1300;SDS011;67431;48.806;9.160;2023-02-01T17:24:00;3.63;;;1.87;;
1300;SDS011;67431;48.806;9.160;2023-02-01T17:26:25;11.53;;;3.00;;
1300;SDS011;67431;48.806;9.160;2023-02-01T17:28:51;8.00;;;2.97;;
1300;SDS011;67431;48.806;9.160;2023-02-01T17:31:17;6.67;;;2.63;;
1300;SDS011;67431;48.806;9.160;2023-02-01T17:33:43;6.93;;;2.50;;
1300;SDS011;67431;48.806;9.160;2023-02-01T17:36:11;3.60;;;2.07;;
1300;SDS011;67431;48.806;9.160;2023-02-01T17:38:38;5.13;;;2.50;;
1300;SDS011;67431;48.806;9.160;2023-02-01T17:41:05;9.53;;;3.17;;
1300;SDS011;67431;48.806;9.160;2023-02-01T17:43:31;9.40;;;2.70;;
1300;SDS011;67431;48.806;9.160;2023-02-01T17:45:57;9.00;;;2.50;;
1300;SDS011;67431;48.806;9.160;2023-02-01T17:48:27;6.20;;;2.30;;
1300;SDS011;67431;48.806;9.160;2023-02-01T17:50:53;2.80;;;1.90;;
1300;SDS011;67431;48.806;9.160;2023-02-01T17:53:26;13.53;;;3.10;;
1300;SDS011;67431;48.806;9.160;2023-02-01T17:55:53;6.23;;;2.27;;
1300;SDS011;67431;48.806;9.160;2023-02-01T17:58:22;9.03;;;2.37;;
1300;SDS011;67431;48.806;9.160;2023-02-01T18:00:49;7.63;;;2.20;;
1300;SDS011;67431;48.806;9.160;2023-02-01T18:03:25;5.50;;;2.20;;